Time;durP1;ratioP1;P1;durP2;ratioP2;P2;SDS_P1;SDS_P2;PMS_P1;PMS_P2;Temp;Humidity;BMP_temperature;BMP_pressure;BME280_temperature;BME280_humidity;BME280_pressure;Samples;Min_cycle;Max_cycle;Signal;HPM_P1;HPM_P2
2023/03/27 00:01:27;;;;;;;6.75;4.38;;;;;;;12.68;75.25;100771.47;5089758;28;20027;-89
2023/03/27 00:03:55;;;;;;;4.45;3.83;;;;;;;12.52;75.23;100741.06;5075800;28;20500;-90
2023/03/27 00:06:23;;;;;;;5.40;3.75;;;;;;;12.67;75.46;100767.97;5073766;28;20099;-89
2023/03/27 00:08:50;;;;;;;4.68;3.75;;;;;;;12.70;75.35;100772.44;5079280;28;20126;-90
2023/03/27 00:11:16;;;;;;;6.15;4.10;;;;;;;12.70;75.60;100773.34;5095634;28;20024;-90
2023/03/27 00:13:48;;;;;;;5.60;3.83;;;;;;;12.61;75.46;100752.88;5078877;28;20099;-90
2023/03/27 00:16:15;;;;;;;5.07;4.00;;;;;;;12.69;75.51;100768.94;5095715;28;20027;-89
2023/03/27 00:18:41;;;;;;;4.70;4.10;;;;;;;12.52;75.09;100723.63;5065754;28;20103;-90
2023/03/27 00:21:06;;;;;;;5.03;3.97;;;;;;;12.65;75.24;100751.28;5092910;28;20507;-90
2023/03/27 00:23:32;;;;;;;3.63;3.33;;;;;;;12.52;75.44;100727.97;5078489;28;20549;-89
2023/03/27 00:25:59;;;;;;;4.53;3.60;;;;;;;12.58;75.09;100731.78;5095461;28;20016;-90
2023/03/27 00:28:28;;;;;;;5.22;3.95;;;;;;;12.62;75.51;100741.56;5087759;28;20135;-89
2023/03/27 00:30:56;;;;;;;4.35;3.67;;;;;;;12.71;75.63;100759.41;5068791;28;20048;-90
2023/03/27 00:33:24;;;;;;;4.82;4.05;;;;;;;12.70;75.62;100760.25;5092366;28;20023;-89
2023/03/27 00:35:54;;;;;;;5.72;3.72;;;;;;;12.60;75.51;100740.59;5064036;28;20031;-90
2023/03/27 00:38:20;;;;;;;4.40;3.85;;;;;;;12.53;75.48;100717.59;5058968;28;20024;-89
2023/03/27 00:40:46;;;;;;;5.18;4.10;;;;;;;12.53;75.80;100722.81;5073891;28;20047;-89
2023/03/27 00:43:35;;;;;;;4.60;3.92;;;;;;;12.71;75.61;100743.69;5088148;28;20028;-89
2023/03/27 00:46:07;;;;;;;5.43;4.00;;;;;;;12.67;75.68;100744.38;5081558;28;20028;-89
2023/03/27 00:48:36;;;;;;;4.75;3.60;;;;;;;12.68;75.51;100740.94;5078347;28;20027;-90
2023/03/27 00:51:05;;;;;;;4.53;3.60;;;;;;;12.51;75.71;100711.38;5095371;28;20027;-90
2023/03/27 00:53:38;;;;;;;4.35;3.67;;;;;;;12.63;75.53;100725.00;5074642;28;20435;-89
2023/03/27 00:56:07;;;;;;;4.50;3.80;;;;;;;12.42;75.74;100684.75;5085250;28;20032;-90
2023/03/27 00:58:52;;;;;;;4.78;3.92;;;;;;;12.61;75.84;100721.44;5083283;28;20027;-90
2023/03/27 01:01:19;;;;;;;4.03;3.45;;;;;;;12.47;76.04;100685.00;5058843;28;20028;-90
2023/03/27 01:03:47;;;;;;;4.35;3.72;;;;;;;12.49;76.02;100699.94;5074738;28;20024;-90
2023/03/27 01:06:17;;;;;;;5.18;3.80;;;;;;;12.62;76.39;100704.00;5075065;28;20497;-90
2023/03/27 01:08:44;;;;;;;5.00;3.55;;;;;;;12.42;76.37;100675.19;5062928;28;20478;-90
2023/03/27 01:11:34;;;;;;;4.78;3.85;;;;;;;12.60;76.13;100701.31;5070867;28;20481;-90
2023/03/27 01:14:21;;;;;;;4.53;3.60;;;;;;;12.58;75.94;100700.34;5104887;28;20416;-90
2023/03/27 01:17:07;;;;;;;4.68;3.45;;;;;;;12.63;75.64;100693.56;5081235;28;20071;-90
2023/03/27 01:20:04;;;;;;;4.07;3.45;;;;;;;12.57;75.99;100685.47;5092233;28;20039;-90
2023/03/27 01:23:05;;;;;;;5.37;3.53;;;;;;;12.58;76.11;100674.16;5081521;28;20387;-90
2023/03/27 01:25:58;;;;;;;4.72;3.50;;;;;;;12.58;76.15;100676.75;5088064;28;20096;-89
2023/03/27 01:28:48;;;;;;;7.40;3.95;;;;;;;12.57;75.82;100669.75;5092612;28;20055;-89
2023/03/27 01:31:39;;;;;;;5.28;3.80;;;;;;;12.58;76.11;100674.16;5082068;28;20052;-89
2023/03/27 01:34:27;;;;;;;4.35;3.55;;;;;;;12.57;76.13;100669.75;5087335;28;20043;-89
2023/03/27 01:37:05;;;;;;;4.53;3.78;;;;;;;12.53;76.14;100664.28;5092029;28;20515;-89
2023/03/27 01:39:34;;;;;;;4.28;3.55;;;;;;;12.56;76.27;100652.22;5090236;28;20122;-89
2023/03/27 01:42:13;;;;;;;5.00;3.88;;;;;;;12.52;76.33;100649.41;5087049;28;20095;-90
2023/03/27 01:44:39;;;;;;;3.60;3.10;;;;;;;12.53;76.40;100651.19;5076275;28;20111;-90
2023/03/27 01:47:29;;;;;;;4.65;3.67;;;;;;;12.40;76.22;100616.63;5088588;28;20475;-90
2023/03/27 01:50:06;;;;;;;5.93;3.70;;;;;;;12.38;76.20;100612.13;5086666;28;20531;-90
2023/03/27 01:52:37;;;;;;;4.95;3.90;;;;;;;12.38;76.55;100618.28;5083632;28;20035;-89
2023/03/27 01:55:08;;;;;;;4.47;3.40;;;;;;;12.37;76.51;100605.09;5093575;28;20133;-90
2023/03/27 01:57:44;;;;;;;5.15;4.05;;;;;;;12.29;76.30;100590.78;5092922;28;20028;-90
2023/03/27 02:00:21;;;;;;;4.10;3.35;;;;;;;12.35;76.43;100604.13;5087247;28;20058;-88
2023/03/27 02:03:15;;;;;;;4.45;3.63;;;;;;;12.49;76.23;100628.28;5067755;28;20528;-89
2023/03/27 02:05:52;;;;;;;4.38;3.88;;;;;;;12.52;76.01;100631.97;5094034;28;20066;-89
2023/03/27 02:08:30;;;;;;;4.68;3.75;;;;;;;12.49;76.33;100631.84;5090595;28;20031;-89
2023/03/27 02:10:57;;;;;;;4.80;3.70;;;;;;;12.27;76.24;100602.91;5072804;28;20047;-89
2023/03/27 02:13:39;;;;;;;4.60;3.58;;;;;;;12.33;76.24;100624.13;5070506;28;20032;-89
2023/03/27 02:16:07;;;;;;;3.88;3.42;;;;;;;12.42;76.37;100655.94;5066411;28;20028;-89
2023/03/27 02:18:37;;;;;;;4.18;3.63;;;;;;;12.28;76.28;100618.69;5074218;28;20020;-89
2023/03/27 02:21:05;;;;;;;4.63;3.83;;;;;;;12.45;76.39;100660.44;5068292;28;20028;-89
2023/03/27 02:23:32;;;;;;;4.32;3.42;;;;;;;12.31;76.54;100658.09;5069488;28;20493;-89
2023/03/27 02:26:03;;;;;;;4.13;3.63;;;;;;;12.46;76.50;100685.78;5092992;28;20031;-90
2023/03/27 02:29:01;;;;;;;3.92;3.30;;;;;;;12.41;76.59;100670.78;5072580;28;20024;-88
2023/03/27 02:31:41;;;;;;;4.22;3.58;;;;;;;12.41;76.53;100683.88;5047787;28;20466;-89
2023/03/27 02:34:28;;;;;;;4.00;3.33;;;;;;;12.44;76.51;100664.75;5068021;28;20040;-88
2023/03/27 02:37:16;;;;;;;5.40;3.92;;;;;;;12.43;76.50;100658.63;5089351;28;20064;-88
2023/03/27 02:40:03;;;;;;;4.18;3.58;;;;;;;12.43;76.45;100663.88;5063600;28;20048;-88
2023/03/27 02:42:34;;;;;;;6.32;3.72;;;;;;;12.43;76.49;100658.63;5059730;28;20012;-88
2023/03/27 02:45:24;;;;;;;4.72;3.70;;;;;;;12.32;76.53;100638.03;5094604;28;20028;-87
2023/03/27 02:48:23;;;;;;;4.05;3.60;;;;;;;12.34;76.25;100639.00;5064757;28;20557;-89
2023/03/27 02:50:59;;;;;;;4.13;3.42;;;;;;;12.02;76.39;100593.94;5081077;28;20120;-88
2023/03/27 02:53:27;;;;;;;4.70;3.50;;;;;;;12.26;76.60;100646.53;5076710;28;20058;-87
2023/03/27 02:55:59;;;;;;;4.22;3.53;;;;;;;12.25;76.63;100647.34;5076623;28;20065;-87
2023/03/27 02:58:49;;;;;;;4.20;3.60;;;;;;;12.39;76.76;100672.41;5075933;28;20028;-87
2023/03/27 03:01:17;;;;;;;5.35;3.30;;;;;;;12.37;76.20;100663.59;5047402;28;20044;-87
2023/03/27 03:03:43;;;;;;;4.20;3.60;;;;;;;12.38;76.64;100660.19;5056562;28;20032;-88
2023/03/27 03:06:10;;;;;;;4.25;3.63;;;;;;;12.25;76.35;100630.75;5049745;28;20540;-87
2023/03/27 03:08:39;;;;;;;;;;;;;;;12.43;76.25;100660.38;5056772;28;20039;-87
2023/03/27 03:11:12;;;;;;;4.20;3.72;;;;;;;12.26;76.34;100635.16;5070810;28;19976;-87
2023/03/27 03:13:38;;;;;;;4.00;3.30;;;;;;;12.33;76.53;100652.94;5071929;28;20028;-87
2023/03/27 03:16:10;;;;;;;4.13;3.50;;;;;;;12.39;76.48;100648.84;5058998;28;20101;-90
2023/03/27 03:18:35;;;;;;;4.75;3.90;;;;;;;12.38;76.39;100640.91;5066943;28;20093;-89
2023/03/27 03:21:04;;;;;;;4.40;3.70;;;;;;;12.19;76.45;100613.94;5078311;28;20016;-90
2023/03/27 03:23:31;;;;;;;4.45;3.33;;;;;;;12.19;76.29;100619.19;5065699;28;20044;-90
2023/03/27 03:25:58;;;;;;;4.97;3.58;;;;;;;12.33;76.52;100634.59;5076152;28;20020;-90
2023/03/27 03:28:27;;;;;;;4.72;3.83;;;;;;;12.22;76.42;100623.66;5055769;28;20467;-89
2023/03/27 03:30:53;;;;;;;5.57;3.80;;;;;;;12.21;76.27;100616.59;5084429;28;20081;-90
2023/03/27 03:33:20;;;;;;;3.75;3.35;;;;;;;12.28;76.28;100628.28;5083248;28;20028;-90
2023/03/27 03:35:48;;;;;;;4.43;3.55;;;;;;;12.41;76.07;100648.94;5094858;28;20040;-89
2023/03/27 03:38:23;;;;;;;4.78;3.67;;;;;;;12.39;76.47;100650.59;5067954;28;20020;-90
2023/03/27 03:40:52;;;;;;;4.65;3.55;;;;;;;12.38;76.43;100648.78;5091814;28;20038;-91
2023/03/27 03:43:24;;;;;;;4.78;3.67;;;;;;;12.34;76.82;100642.53;5068008;28;20036;-90
2023/03/27 03:45:55;;;;;;;3.95;3.38;;;;;;;12.30;76.42;100629.25;5112263;28;20028;-90
2023/03/27 03:48:22;;;;;;;4.25;3.45;;;;;;;12.25;76.24;100620.25;5078188;28;20019;-91
2023/03/27 03:50:57;;;;;;;4.07;3.40;;;;;;;12.36;76.43;100645.19;5079634;28;20027;-91
2023/03/27 03:53:23;;;;;;;4.03;3.63;;;;;;;12.28;76.37;100630.91;5072478;28;20058;-90
2023/03/27 03:55:52;;;;;;;4.45;3.70;;;;;;;12.10;76.45;100599.53;5071866;28;20496;-90
2023/03/27 03:58:17;;;;;;;3.83;3.40;;;;;;;12.31;76.30;100633.63;5075442;28;20028;-90
2023/03/27 04:00:45;;;;;;;4.20;3.60;;;;;;;12.32;76.66;100641.56;5088656;28;20077;-90
2023/03/27 04:03:13;;;;;;;4.18;3.55;;;;;;;12.29;76.34;100644.03;5103175;28;20039;-90
2023/03/27 04:05:39;;;;;;;4.40;3.70;;;;;;;12.29;76.59;100633.56;5112717;28;20016;-90
2023/03/27 04:08:08;;;;;;;7.40;4.20;;;;;;;12.30;76.32;100640.59;5087920;28;20035;-90
2023/03/27 04:10:37;;;;;;;5.53;3.70;;;;;;;12.07;76.29;100599.41;5109958;28;20098;-89
2023/03/27 04:13:04;;;;;;;4.13;3.63;;;;;;;12.30;76.33;100639.72;5088539;28;20032;-90
2023/03/27 04:15:29;;;;;;;;;;;;;;;12.34;76.51;100634.69;5092729;28;20570;-90
2023/03/27 04:17:56;;;;;;;4.47;3.60;;;;;;;12.27;76.60;100626.47;5095779;28;19912;-90
2023/03/27 04:20:25;;;;;;;4.97;3.70;;;;;;;12.13;76.42;100608.44;5075645;28;20085;-90
2023/03/27 04:22:53;;;;;;;4.32;3.70;;;;;;;12.16;76.21;100613.78;5091571;28;20023;-90
2023/03/27 04:25:21;;;;;;;4.32;3.67;;;;;;;12.07;76.29;100588.94;5102945;28;20019;-90
2023/03/27 04:27:50;;;;;;;3.90;3.40;;;;;;;12.28;76.46;100633.50;5111881;28;20031;-89
2023/03/27 04:30:21;;;;;;;4.03;3.55;;;;;;;12.27;76.42;100621.22;5089608;28;20023;-90
2023/03/27 04:32:48;;;;;;;4.70;3.80;;;;;;;12.25;76.34;100618.53;5079461;28;20043;-89
2023/03/27 04:35:14;;;;;;;4.70;3.70;;;;;;;12.01;75.92;100568.63;5110181;28;20119;-89
2023/03/27 04:37:40;;;;;;;4.50;3.60;;;;;;;12.25;76.16;100604.56;5111362;28;20191;-88
2023/03/27 04:40:07;;;;;;;;;;;;;;;12.26;76.24;100601.13;5112398;28;20023;-89
2023/03/27 04:42:33;;;;;;;5.32;4.07;;;;;;;12.22;76.64;100597.47;5094453;28;19919;-88
2023/03/27 04:45:00;;;;;;;4.82;3.92;;;;;;;12.14;76.32;100581.41;5100396;28;20028;-88
2023/03/27 04:47:27;;;;;;;4.93;3.92;;;;;;;11.94;76.17;100556.09;5109775;28;20031;-89
2023/03/27 04:49:59;;;;;;;4.80;3.90;;;;;;;11.99;76.58;100568.53;5113121;27;20031;-89
2023/03/27 04:52:25;;;;;;;4.93;3.70;;;;;;;12.05;76.03;100578.41;5075053;28;20031;-89
2023/03/27 04:54:50;;;;;;;5.05;3.85;;;;;;;12.03;76.70;100569.56;5082825;28;20028;-89
2023/03/27 04:57:17;;;;;;;5.25;3.75;;;;;;;11.91;76.43;100548.97;5109311;28;20039;-88
2023/03/27 04:59:43;;;;;;;4.85;4.10;;;;;;;12.14;76.38;100585.75;5081549;28;20497;-88
2023/03/27 05:02:09;;;;;;;5.07;3.40;;;;;;;12.13;76.36;100586.59;5110443;28;20034;-88
2023/03/27 05:04:35;;;;;;;5.13;3.95;;;;;;;11.90;76.52;100547.19;5105315;28;20084;-89
2023/03/27 05:07:01;;;;;;;4.75;3.88;;;;;;;12.05;76.36;100569.66;5111044;28;20032;-88
2023/03/27 05:09:29;;;;;;;5.78;4.18;;;;;;;11.94;76.32;100549.13;5101446;28;20668;-91
2023/03/27 05:11:55;;;;;;;4.22;3.55;;;;;;;12.15;76.45;100585.84;5104416;27;20023;-91
2023/03/27 05:14:22;;;;;;;5.20;3.83;;;;;;;11.98;76.44;100558.91;5106644;28;20039;-89
2023/03/27 05:16:49;;;;;;;4.70;3.90;;;;;;;12.09;76.59;100579.44;5085311;28;20040;-88
2023/03/27 05:19:19;;;;;;;4.82;3.80;;;;;;;12.18;76.46;100596.44;5089345;28;20427;-93
2023/03/27 05:21:51;;;;;;;4.57;3.60;;;;;;;12.01;76.21;100559.03;5100826;28;20665;-91
2023/03/27 05:24:21;;;;;;;5.25;3.75;;;;;;;11.92;76.25;100542.94;5086122;28;20031;-89
2023/03/27 05:26:48;;;;;;;4.63;3.60;;;;;;;11.99;76.52;100551.94;5088490;28;20577;-91
2023/03/27 05:29:18;;;;;;;5.35;3.60;;;;;;;12.16;76.45;100573.63;5100851;28;20028;-91
2023/03/27 05:31:43;;;;;;;4.60;3.65;;;;;;;11.73;76.45;100501.03;5097655;28;20051;-89
2023/03/27 05:34:10;;;;;;;4.00;3.60;;;;;;;12.13;76.56;100570.91;5069806;28;20043;-91
2023/03/27 05:36:36;;;;;;;4.05;3.60;;;;;;;11.97;76.36;100541.41;5084209;28;20031;-90
2023/03/27 05:39:03;;;;;;;5.32;3.60;;;;;;;12.00;76.27;100536.31;5122467;28;20020;-90
2023/03/27 05:41:30;;;;;;;4.40;3.60;;;;;;;12.00;76.43;100538.03;5102454;28;20186;-90
2023/03/27 05:43:55;;;;;;;4.75;3.80;;;;;;;12.11;76.48;100565.59;5112844;28;20058;-89
2023/03/27 05:46:21;;;;;;;4.10;3.63;;;;;;;12.14;76.15;100562.19;5087420;28;20051;-87
2023/03/27 05:48:47;;;;;;;4.85;3.70;;;;;;;12.15;76.22;100563.97;5096518;28;20698;-90
2023/03/27 05:51:14;;;;;;;4.65;3.75;;;;;;;12.12;76.41;100563.84;5103001;28;20572;-89
2023/03/27 05:53:40;;;;;;;4.78;3.50;;;;;;;11.82;76.28;100518.03;5106507;28;20462;-89
2023/03/27 05:56:07;;;;;;;4.32;3.70;;;;;;;12.17;75.96;100563.25;5077090;28;20036;-88
2023/03/27 05:58:33;;;;;;;4.78;3.80;;;;;;;11.98;76.12;100537.97;5110436;28;20024;-88
2023/03/27 06:00:59;;;;;;;4.53;3.40;;;;;;;12.16;76.19;100558.81;5111423;28;20070;-91
2023/03/27 06:03:29;;;;;;;5.35;4.15;;;;;;;12.12;76.00;100561.22;5073959;28;20035;-91
2023/03/27 06:05:58;;;;;;;4.45;3.60;;;;;;;12.00;76.47;100514.47;5085957;28;20020;-90
2023/03/27 06:08:25;;;;;;;4.38;3.50;;;;;;;11.95;76.26;100498.56;5107453;28;20047;-91
2023/03/27 06:10:53;;;;;;;5.40;3.95;;;;;;;11.88;76.28;100493.00;5074520;28;20043;-91
2023/03/27 06:13:20;;;;;;;4.43;3.70;;;;;;;11.82;76.05;100475.28;5088478;28;20028;-90
2023/03/27 06:15:48;;;;;;;15.77;8.90;;;;;;;11.98;75.53;100509.19;5108609;28;20027;-94
2023/03/27 06:18:14;;;;;;;24.02;12.82;;;;;;;11.88;74.24;100519.16;5119648;28;20022;-93
2023/03/27 06:20:41;;;;;;;31.00;14.45;;;;;;;11.58;74.97;100468.13;5100982;28;20055;-91
2023/03/27 06:23:08;;;;;;;24.45;10.75;;;;;;;11.66;75.50;100478.91;5117584;28;20110;-92
2023/03/27 06:25:46;;;;;;;17.80;9.15;;;;;;;11.98;76.06;100518.72;5117924;28;20024;-91
2023/03/27 06:28:19;;;;;;;15.10;8.32;;;;;;;11.83;75.64;100474.44;5101520;28;20106;-89
2023/03/27 06:30:48;;;;;;;16.15;7.57;;;;;;;12.00;75.72;100489.22;5099001;28;20794;-92
2023/03/27 06:33:14;;;;;;;13.73;7.82;;;;;;;11.94;76.17;100494.19;5083738;28;20035;-91
2023/03/27 06:35:44;;;;;;;10.77;7.65;;;;;;;11.88;75.84;100467.75;5115998;28;20042;-90
2023/03/27 06:38:11;;;;;;;14.85;7.57;;;;;;;12.01;75.81;100492.72;5088916;28;20036;-91
2023/03/27 06:40:38;;;;;;;12.48;7.68;;;;;;;11.87;75.73;100476.38;5087523;28;20016;-91
2023/03/27 06:43:06;;;;;;;11.88;7.75;;;;;;;11.99;76.07;100494.38;5101098;28;20035;-91
2023/03/27 06:45:44;;;;;;;13.50;7.95;;;;;;;11.84;76.07;100457.03;5100600;28;20511;-91
2023/03/27 06:48:12;;;;;;;11.15;7.13;;;;;;;11.88;75.71;100453.75;5089711;28;20070;-91
2023/03/27 06:50:38;;;;;;;14.43;7.38;;;;;;;12.07;75.90;100477.28;5098367;28;20020;-90
2023/03/27 06:53:05;;;;;;;14.93;7.70;;;;;;;12.03;75.45;100467.50;5089088;28;20400;-91
2023/03/27 06:55:32;;;;;;;11.88;7.20;;;;;;;12.08;75.91;100475.56;5079675;28;20122;-88
2023/03/27 06:57:59;;;;;;;11.13;6.45;;;;;;;12.13;75.62;100476.66;5079566;28;20020;-89
2023/03/27 07:00:28;;;;;;;11.27;7.18;;;;;;;11.99;75.55;100458.63;5085013;28;20468;-88
2023/03/27 07:02:59;;;;;;;11.13;6.82;;;;;;;12.16;75.45;100475.06;5086641;28;20024;-89
2023/03/27 07:05:27;;;;;;;10.93;6.88;;;;;;;12.14;75.47;100463.63;5086552;28;20024;-89
2023/03/27 07:07:54;;;;;;;11.75;7.18;;;;;;;12.15;75.61;100472.34;5085999;28;20031;-89
2023/03/27 07:10:21;;;;;;;10.68;6.97;;;;;;;11.70;75.67;100402.38;5116587;28;20476;-89
2023/03/27 07:12:48;;;;;;;13.40;6.72;;;;;;;12.15;75.57;100474.97;5116438;28;20054;-89
2023/03/27 07:15:13;;;;;;;10.32;6.38;;;;;;;12.07;75.72;100443.25;5116831;28;20028;-90
2023/03/27 07:17:41;;;;;;;12.43;6.97;;;;;;;11.99;75.63;100428.94;5117005;28;20038;-90
2023/03/27 07:20:09;;;;;;;9.68;6.47;;;;;;;11.99;75.55;100440.31;5117020;28;20061;-89
2023/03/27 07:22:34;;;;;;;8.57;5.97;;;;;;;11.99;75.50;100440.31;5116390;28;20079;-90
2023/03/27 07:25:00;;;;;;;8.75;6.00;;;;;;;12.08;75.64;100452.88;5108091;27;20028;-90
2023/03/27 07:27:28;;;;;;;9.98;6.40;;;;;;;11.86;75.72;100419.66;5110018;28;20028;-90
2023/03/27 07:29:55;;;;;;;8.93;6.00;;;;;;;12.02;76.00;100434.31;5113543;28;20028;-90
2023/03/27 07:32:21;;;;;;;8.32;5.55;;;;;;;12.01;75.82;100432.53;5113283;28;20078;-89
2023/03/27 07:34:47;;;;;;;9.90;6.20;;;;;;;11.76;76.16;100394.81;5113685;28;20085;-91
2023/03/27 07:37:14;;;;;;;9.70;6.15;;;;;;;11.98;75.79;100420.22;5114717;28;20731;-90
2023/03/27 07:39:40;;;;;;;9.48;6.80;;;;;;;12.08;75.71;100431.94;5113388;28;20118;-89
2023/03/27 07:42:08;;;;;;;10.15;6.40;;;;;;;12.08;75.70;100434.56;5113503;28;20023;-90
2023/03/27 07:44:34;;;;;;;10.38;6.65;;;;;;;12.14;75.75;100433.94;5114614;28;20051;-90
2023/03/27 07:47:00;;;;;;;8.70;6.13;;;;;;;12.05;75.93;100415.25;5113254;28;20055;-90
2023/03/27 07:49:28;;;;;;;8.55;6.32;;;;;;;11.96;76.02;100394.81;5098142;28;20537;-91
2023/03/27 07:51:53;;;;;;;10.27;7.07;;;;;;;11.93;75.83;100394.66;5109518;28;20063;-90
2023/03/27 07:54:20;;;;;;;10.38;6.43;;;;;;;11.94;75.72;100386.00;5092958;28;20123;-91
2023/03/27 07:56:48;;;;;;;10.50;6.40;;;;;;;11.79;75.96;100366.19;5096137;28;20077;-90
2023/03/27 07:59:15;;;;;;;8.40;5.70;;;;;;;11.92;75.59;100378.09;5114220;28;20024;-90
2023/03/27 08:01:50;;;;;;;8.48;5.43;;;;;;;12.12;75.89;100412.94;5114138;28;20071;-90
2023/03/27 08:04:16;;;;;;;8.40;5.75;;;;;;;12.07;76.30;100401.38;5085119;28;20453;-91
2023/03/27 08:06:42;;;;;;;9.80;6.43;;;;;;;11.97;76.24;100376.53;5098575;28;20089;-89
2023/03/27 08:09:09;;;;;;;9.45;6.00;;;;;;;11.94;75.68;100362.47;5114186;28;20447;-90
2023/03/27 08:11:37;;;;;;;9.27;6.10;;;;;;;12.05;75.98;100365.53;5095930;28;20028;-91
2023/03/27 08:14:03;;;;;;;9.23;5.78;;;;;;;12.13;75.99;100380.72;5092790;28;20062;-91
2023/03/27 08:16:30;;;;;;;8.93;6.20;;;;;;;11.95;75.94;100338.94;5106554;28;20034;-91
2023/03/27 08:18:56;;;;;;;11.45;7.05;;;;;;;11.80;76.00;100319.97;5092574;28;20114;-91
2023/03/27 08:21:22;;;;;;;14.05;8.00;;;;;;;12.17;75.75;100372.16;5111440;28;20114;-90
2023/03/27 08:23:48;;;;;;;21.42;10.68;;;;;;;12.17;76.04;100364.31;5099243;28;20043;-91
2023/03/27 08:26:17;;;;;;;16.95;8.75;;;;;;;12.05;75.75;100334.13;5092838;28;20501;-91
2023/03/27 08:28:43;;;;;;;10.63;6.35;;;;;;;12.11;75.77;100335.25;5075932;28;20040;-91
2023/03/27 08:31:12;;;;;;;10.57;6.65;;;;;;;11.92;75.96;100309.16;5112348;28;20425;-90
2023/03/27 08:33:40;;;;;;;9.35;6.05;;;;;;;12.14;75.68;100337.97;5112973;28;20031;-90
2023/03/27 08:36:06;;;;;;;7.10;5.28;;;;;;;11.97;76.22;100318.97;5113644;28;20042;-90
2023/03/27 08:38:38;;;;;;;8.30;5.70;;;;;;;11.87;76.18;100305.44;5090477;28;20135;-90
2023/03/27 08:41:04;;;;;;;9.52;6.40;;;;;;;11.78;76.32;100264.09;5080665;28;20020;-90
2023/03/27 08:43:42;;;;;;;9.15;6.28;;;;;;;11.82;76.21;100273.84;5119849;28;20032;-91
2023/03/27 08:46:21;;;;;;;8.20;5.82;;;;;;;11.86;76.59;100291.47;5109028;28;20027;-90
2023/03/27 08:48:51;;;;;;;9.90;6.47;;;;;;;11.83;76.73;100291.31;5097417;28;20044;-90
2023/03/27 08:51:21;;;;;;;8.38;6.00;;;;;;;11.59;76.45;100244.13;5091936;28;20031;-90
2023/03/27 08:53:55;;;;;;;8.30;5.85;;;;;;;12.04;76.41;100306.16;5074842;28;20028;-90
2023/03/27 08:56:23;;;;;;;9.55;5.93;;;;;;;11.84;76.60;100274.81;5093017;28;20040;-91
2023/03/27 08:59:36;;;;;;;10.30;5.90;;;;;;;12.01;76.60;100301.69;5106531;28;20020;-90
2023/03/27 09:02:07;;;;;;;9.27;6.03;;;;;;;11.96;76.79;100301.50;5107623;28;20059;-90
2023/03/27 09:04:45;;;;;;;8.45;5.53;;;;;;;11.94;76.76;100282.22;5106887;28;20036;-90
2023/03/27 09:11:19;;;;;;;7.97;5.80;;;;;;;11.96;76.81;100274.44;5092975;28;20074;-91
2023/03/27 09:14:36;;;;;;;7.07;5.80;;;;;;;12.00;76.80;100261.56;5079789;28;20450;-91
2023/03/27 09:20:31;;;;;;;8.40;5.72;;;;;;;11.60;77.14;100198.84;5102861;28;20511;-91
2023/03/27 09:29:40;;;;;;;7.28;5.95;;;;;;;11.63;77.08;100167.59;5078626;28;20043;-91
2023/03/27 09:32:14;;;;;;;8.25;5.55;;;;;;;11.83;77.00;100186.66;5103028;28;20126;-90
2023/03/27 09:34:46;;;;;;;9.32;6.00;;;;;;;11.81;77.13;100175.28;5053495;28;20032;-90
2023/03/27 09:37:15;;;;;;;8.10;5.45;;;;;;;11.95;77.08;100191.53;5070737;28;20024;-89
2023/03/27 09:39:45;;;;;;;8.88;6.47;;;;;;;11.95;77.49;100187.19;5086054;28;20044;-89
2023/03/27 09:42:18;;;;;;;8.82;5.90;;;;;;;11.65;77.14;100131.94;5086582;28;20107;-90
2023/03/27 09:44:46;;;;;;;9.00;5.93;;;;;;;11.60;77.09;100110.84;5063215;28;20181;-90
2023/03/27 09:47:14;;;;;;;7.72;5.18;;;;;;;11.72;77.39;100126.09;5086054;28;20016;-89
2023/03/27 09:49:57;;;;;;;7.75;5.82;;;;;;;11.60;77.63;100110.84;5100357;28;20023;-89
2023/03/27 09:52:37;;;;;;;8.35;5.78;;;;;;;11.78;77.49;100144.66;5106300;28;20020;-90
2023/03/27 09:55:29;;;;;;;9.00;5.90;;;;;;;11.77;77.28;100127.19;5105139;28;20067;-89
2023/03/27 09:58:12;;;;;;;9.07;5.97;;;;;;;11.85;77.06;100127.47;5090102;28;20032;-90
2023/03/27 10:00:38;;;;;;;9.05;5.95;;;;;;;11.90;77.23;100135.53;5091438;28;20581;-87
2023/03/27 10:03:14;;;;;;;8.10;5.75;;;;;;;11.96;77.50;100139.28;5105637;28;20067;-88
2023/03/27 10:05:40;;;;;;;8.00;5.70;;;;;;;11.92;76.87;100099.88;5109927;28;20027;-89
2023/03/27 10:08:31;;;;;;;7.80;5.65;;;;;;;11.91;76.64;100092.84;5110186;28;20015;-89
2023/03/27 10:10:58;;;;;;;7.82;5.65;;;;;;;11.86;77.18;100090.00;5110261;28;20447;-89
2023/03/27 10:13:26;;;;;;;9.23;5.95;;;;;;;11.95;77.12;100110.44;5097411;28;20024;-87
2023/03/27 10:16:04;;;;;;;9.23;5.97;;;;;;;11.95;77.09;100095.63;5100849;28;20046;-88
2023/03/27 10:18:33;;;;;;;8.90;6.10;;;;;;;12.02;77.02;100105.50;5096925;28;20062;-91
2023/03/27 10:21:06;;;;;;;7.90;5.65;;;;;;;11.95;76.92;100065.94;5084846;28;20019;-90
2023/03/27 10:23:45;;;;;;;8.60;5.82;;;;;;;12.02;76.85;100063.63;5086507;28;20028;-91
2023/03/27 10:26:16;;;;;;;8.38;6.28;;;;;;;11.89;76.80;100027.38;5107591;28;20528;-91
2023/03/27 10:28:47;;;;;;;7.10;5.72;;;;;;;12.05;77.29;100069.81;5094912;28;20032;-89
2023/03/27 10:31:28;;;;;;;8.10;6.00;;;;;;;12.02;77.05;100062.72;5100716;28;20128;-90
2023/03/27 10:33:58;;;;;;;11.00;6.63;;;;;;;12.07;77.15;100057.69;5110146;28;20023;-90
2023/03/27 10:36:25;;;;;;;9.65;6.70;;;;;;;12.09;76.95;100051.66;5110497;28;20472;-90
2023/03/27 10:38:57;;;;;;;8.07;6.18;;;;;;;12.08;77.19;100056.81;5110351;28;20028;-89
2023/03/27 10:41:23;;;;;;;10.10;6.53;;;;;;;11.93;77.10;100024.03;5085132;28;20119;-89
2023/03/27 10:43:59;;;;;;;8.30;5.93;;;;;;;11.99;77.34;100034.72;5105355;28;20027;-90
2023/03/27 10:46:29;;;;;;;8.00;5.68;;;;;;;11.97;77.43;100027.66;5110921;28;20412;-89
2023/03/27 10:49:04;;;;;;;8.25;5.90;;;;;;;11.82;77.73;99993.94;5111320;28;20028;-90
2023/03/27 10:51:39;;;;;;;7.85;5.68;;;;;;;12.04;77.81;100026.16;5110515;28;20035;-90
2023/03/27 10:54:26;;;;;;;10.65;6.25;;;;;;;12.04;77.50;100026.16;5111324;28;20034;-90
2023/03/27 10:57:01;;;;;;;7.80;5.88;;;;;;;12.02;78.01;100018.22;5079870;28;20045;-89
2023/03/27 10:59:55;;;;;;;9.13;6.43;;;;;;;12.04;77.37;100005.22;5099342;28;20044;-89
2023/03/27 11:02:37;;;;;;;9.95;6.07;;;;;;;12.05;77.12;100002.66;5091166;28;20117;-90
2023/03/27 11:05:16;;;;;;;8.75;6.07;;;;;;;11.96;77.67;99994.50;5094902;28;20027;-90
2023/03/27 11:08:04;;;;;;;10.02;6.25;;;;;;;12.07;77.65;100010.56;5114822;28;20485;-91
2023/03/27 11:10:50;;;;;;;8.48;6.47;;;;;;;11.76;77.73;99952.75;5103175;28;20023;-90
2023/03/27 11:13:45;;;;;;;9.68;6.20;;;;;;;12.01;77.56;99988.56;5096711;28;20036;-90
2023/03/27 11:16:17;;;;;;;7.50;5.72;;;;;;;12.08;77.72;99996.63;5100299;28;20055;-90
2023/03/27 11:18:53;;;;;;;8.65;5.97;;;;;;;11.98;77.88;99974.47;5113714;28;20023;-89
2023/03/27 11:21:24;;;;;;;8.45;5.78;;;;;;;12.10;77.88;99989.72;5109787;28;20015;-89
2023/03/27 11:23:58;;;;;;;8.90;6.07;;;;;;;12.04;77.64;99960.72;5113780;28;20032;-91
2023/03/27 11:26:38;;;;;;;10.35;6.40;;;;;;;11.98;77.82;99932.63;5083649;28;20019;-89
2023/03/27 11:29:15;;;;;;;8.32;6.20;;;;;;;11.98;77.68;99930.00;5096024;28;20025;-90
2023/03/27 11:31:44;;;;;;;8.75;5.95;;;;;;;12.14;77.67;99953.25;5113697;28;20059;-89
2023/03/27 11:34:24;;;;;;;9.10;6.35;;;;;;;12.16;77.50;99948.06;5113445;28;20438;-88
2023/03/27 11:36:51;;;;;;;9.32;6.10;;;;;;;12.17;77.61;99935.06;5114358;28;20119;-89
2023/03/27 11:39:42;;;;;;;11.23;6.55;;;;;;;12.18;77.36;99928.97;5097812;28;20389;-89
2023/03/27 11:42:41;;;;;;;12.13;6.75;;;;;;;12.25;77.55;99916.09;5096123;28;20420;-89
2023/03/27 11:45:11;;;;;;;9.48;6.57;;;;;;;12.14;77.39;99900.91;5097885;28;20536;-89
2023/03/27 11:47:56;;;;;;;10.50;7.28;;;;;;;12.25;77.48;99914.34;5107114;28;20036;-90
2023/03/27 11:50:46;;;;;;;10.95;6.82;;;;;;;12.25;77.59;99903.00;5092038;28;20381;-88
2023/03/27 11:53:29;;;;;;;11.98;7.20;;;;;;;12.34;76.91;99887.59;5098808;28;20511;-90
2023/03/27 11:56:08;;;;;;;10.88;6.38;;;;;;;12.32;77.24;99903.25;5102879;28;20505;-89
2023/03/27 11:58:47;;;;;;;10.50;7.15;;;;;;;12.09;77.04;99846.66;5078479;28;20532;-89
2023/03/27 12:01:32;;;;;;;11.30;7.18;;;;;;;12.33;77.13;99889.31;5106637;28;20027;-89